createdAt,value
2022-10-01T00:03:34.768Z,0
2022-10-01T00:08:49.677Z,0
2022-10-01T00:14:05.177Z,0
2022-10-01T00:18:30.066Z,0
2022-10-01T00:23:21.757Z,0
2022-10-01T00:28:30.915Z,0
2022-10-01T00:33:40.669Z,0
2022-10-01T00:38:53.598Z,0
2022-10-01T00:44:02.714Z,0
2022-10-01T00:49:11.831Z,0
2022-10-01T00:54:30.564Z,0
2022-10-01T00:59:42.264Z,0
2022-10-01T01:04:52.637Z,0
2022-10-01T01:10:17.149Z,0
2022-10-01T01:15:26.876Z,0
2022-10-01T01:20:36.004Z,0
2022-10-01T01:25:45.118Z,0
2022-10-01T01:30:55.143Z,0
2022-10-01T01:36:03.994Z,0
2022-10-01T01:41:13.738Z,0
2022-10-01T01:49:16.132Z,0
2022-10-01T01:53:27.350Z,0
2022-10-01T01:58:37.092Z,0
2022-10-01T02:03:47.497Z,0
2022-10-01T02:08:57.261Z,0
2022-10-01T02:16:36.547Z,0
2022-10-01T02:22:28.218Z,0
2022-10-01T02:26:54.402Z,0
2022-10-01T02:31:46.751Z,0
2022-10-01T02:36:56.476Z,0
2022-10-01T02:42:06.265Z,0
2022-10-01T02:47:15.360Z,0
2022-10-01T02:52:23.870Z,0
2022-10-01T02:57:33.590Z,0
2022-10-01T03:02:42.255Z,0
2022-10-01T03:07:51.222Z,0
2022-10-01T03:12:59.709Z,0
2022-10-01T03:18:08.158Z,0
2022-10-01T03:23:16.644Z,0
2022-10-01T03:28:25.433Z,0
2022-10-01T03:33:33.625Z,0
2022-10-01T03:38:45.281Z,0
2022-10-01T03:44:00.943Z,0
2022-10-01T03:49:02.880Z,0
2022-10-01T03:54:12.003Z,0
2022-10-01T03:59:21.765Z,0
2022-10-01T04:04:34.086Z,0
2022-10-01T04:09:44.510Z,0
2022-10-01T04:14:54.242Z,0
2022-10-01T04:20:02.725Z,0
2022-10-01T04:25:12.485Z,0
2022-10-01T04:30:22.244Z,0
2022-10-01T04:35:30.754Z,0
2022-10-01T04:40:40.480Z,0
2022-10-01T04:45:50.275Z,0
2022-10-01T04:51:04.840Z,0
2022-10-01T04:56:22.288Z,0
2022-10-01T05:01:38.959Z,0
2022-10-01T05:06:57.300Z,0
2022-10-01T05:17:30.191Z,0
2022-10-01T05:28:03.455Z,1
2022-10-01T05:38:38.275Z,3
2022-10-01T05:43:54.119Z,6
2022-10-01T05:49:14.193Z,8
2022-10-01T05:54:31.556Z,10
2022-10-01T05:59:48.530Z,15
2022-10-01T06:05:05.439Z,22
2022-10-01T06:10:23.418Z,39
2022-10-01T06:15:41.326Z,41
2022-10-01T06:20:57.509Z,47
2022-10-01T06:26:13.652Z,66
2022-10-01T06:31:29.974Z,56
2022-10-01T06:35:55.968Z,62
2022-10-01T06:39:32.778Z,55
2022-10-01T06:44:21.955Z,46
2022-10-01T06:49:31.034Z,55
2022-10-01T06:54:39.515Z,56
2022-10-01T06:59:49.917Z,52
2022-10-01T07:04:58.403Z,97
2022-10-01T07:10:10.070Z,162
2022-10-01T07:15:19.837Z,91
2022-10-01T07:20:29.592Z,273
2022-10-01T07:25:38.724Z,233
2022-10-01T07:30:47.842Z,271
2022-10-01T07:35:57.602Z,206
2022-10-01T07:41:06.744Z,138
2022-10-01T07:46:16.689Z,160
2022-10-01T07:51:24.958Z,174
2022-10-01T07:56:35.356Z,211
2022-10-01T08:01:44.785Z,314
2022-10-01T08:06:54.233Z,244
2022-10-01T08:12:02.717Z,275
2022-10-01T08:17:13.116Z,626
2022-10-01T08:22:21.599Z,736
2022-10-01T08:27:30.073Z,756
2022-10-01T08:32:38.560Z,771
2022-10-01T08:37:47.036Z,558
2022-10-01T08:42:59.120Z,702
2022-10-01T08:48:13.329Z,723
2022-10-01T08:53:15.697Z,872
2022-10-01T08:58:45.012Z,1250
2022-10-01T09:04:00.638Z,1386
2022-10-01T09:10:56.729Z,846
2022-10-01T09:15:19.647Z,984
2022-10-01T09:20:36.351Z,547
2022-10-01T09:25:53.975Z,559
2022-10-01T09:31:12.091Z,444
2022-10-01T09:35:38.037Z,787
2022-10-01T09:40:03.558Z,871
2022-10-01T09:45:19.161Z,1247
2022-10-01T09:50:35.239Z,1582
2022-10-01T09:55:51.555Z,656
2022-10-01T10:01:08.455Z,1572
2022-10-01T10:06:24.516Z,1156
2022-10-01T10:10:50.525Z,934
2022-10-01T10:15:43.087Z,812
2022-10-01T10:20:52.642Z,497
2022-10-01T10:26:01.756Z,464
2022-10-01T10:31:11.178Z,930
2022-10-01T10:36:20.641Z,1348
2022-10-01T10:41:29.769Z,1196
2022-10-01T10:46:46.723Z,1098
2022-10-01T10:51:48.016Z,1258
2022-10-01T10:56:57.143Z,908
2022-10-01T11:02:07.616Z,875
2022-10-01T11:07:17.276Z,788
2022-10-01T11:12:25.752Z,787
2022-10-01T11:16:44.354Z,1521
2022-10-01T11:17:34.359Z,1521
2022-10-01T11:22:01.001Z,1256
2022-10-01T11:28:39.835Z,1121
2022-10-01T11:37:52.048Z,1482
2022-10-01T11:38:42.053Z,1482
2022-10-01T11:43:35.841Z,1629
2022-10-01T11:48:26.123Z,1629
2022-10-01T11:53:43.555Z,2511
2022-10-01T11:59:02.341Z,1715
2022-10-01T11:59:52.341Z,1715
2022-10-01T12:04:36.636Z,2395
2022-10-01T12:05:11.281Z,2395
2022-10-01T12:09:52.161Z,1453
2022-10-01T12:11:43.375Z,1453
2022-10-01T12:16:55.193Z,1116
2022-10-01T12:17:15.171Z,1116
2022-10-01T12:22:15.220Z,167
2022-10-01T12:22:35.180Z,167
2022-10-01T12:27:35.198Z,174
2022-10-01T12:27:55.238Z,174
2022-10-01T12:32:55.840Z,391
2022-10-01T13:02:23.299Z,1140
2022-10-01T13:07:38.779Z,628
2022-10-01T13:13:28.473Z,219
2022-10-01T13:23:25.976Z,386
2022-10-01T13:28:40.887Z,716
2022-10-01T13:29:30.886Z,716
2022-10-01T13:34:22.242Z,941
2022-10-01T13:37:31.291Z,941
2022-10-01T13:41:56.371Z,1190
2022-10-01T13:54:56.538Z,777
2022-10-01T13:55:46.578Z,777
2022-10-01T14:01:34.919Z,1075
2022-10-01T14:06:44.032Z,352
2022-10-01T14:15:57.470Z,300
2022-10-01T14:23:13.443Z,210
2022-10-01T14:37:57.464Z,210
2022-10-01T14:43:07.678Z,319
2022-10-01T14:43:27.653Z,319
2022-10-01T14:48:27.702Z,487
2022-10-01T14:49:12.967Z,487
2022-10-01T14:54:22.233Z,654
2022-10-01T14:54:51.137Z,654
2022-10-01T15:00:00.801Z,539
2022-10-01T15:00:20.775Z,539
2022-10-01T15:05:20.743Z,323
2022-10-01T15:08:10.255Z,323
2022-10-01T15:12:09.980Z,772
2022-10-01T15:14:39.982Z,772
2022-10-01T15:19:06.868Z,290
2022-10-01T15:19:56.874Z,290
2022-10-01T15:24:24.856Z,231
2022-10-01T15:31:58.057Z,272
2022-10-01T15:35:38.730Z,272
2022-10-01T15:40:48.797Z,180
2022-10-01T15:45:26.937Z,180
2022-10-01T15:50:42.465Z,167
2022-10-01T15:51:37.848Z,167
2022-10-01T15:56:48.156Z,156
2022-10-01T15:57:08.138Z,156
2022-10-01T16:02:07.739Z,182
2022-10-01T16:02:27.619Z,182
2022-10-01T16:07:30.714Z,147
2022-10-01T16:07:50.695Z,147
2022-10-01T16:12:53.275Z,148
2022-10-01T16:20:33.660Z,148
2022-10-01T16:25:48.538Z,135
2022-10-01T16:32:44.058Z,114
2022-10-01T16:33:34.061Z,114
2022-10-01T16:37:58.937Z,98
2022-10-01T16:43:18.244Z,98
2022-10-01T16:48:30.046Z,73
2022-10-01T16:50:15.608Z,73
2022-10-01T16:55:24.964Z,58
2022-10-01T16:59:04.939Z,58
2022-10-01T17:03:28.519Z,46
2022-10-01T17:05:08.522Z,46
2022-10-01T17:08:44.629Z,30
2022-10-01T17:10:24.627Z,30
2022-10-01T17:14:00.153Z,17
2022-10-01T17:15:40.157Z,17
2022-10-01T17:19:17.577Z,9
2022-10-01T17:20:57.575Z,9
2022-10-01T17:25:23.097Z,4
2022-10-01T17:26:13.087Z,4
2022-10-01T17:30:38.689Z,1
2022-10-01T17:31:28.799Z,1
2022-10-01T17:35:53.528Z,0
2022-10-01T17:36:43.527Z,0
2022-10-01T17:41:09.669Z,0
2022-10-01T17:41:59.683Z,0
2022-10-01T17:46:25.180Z,0
2022-10-01T17:47:15.182Z,0
2022-10-01T17:51:40.056Z,0
2022-10-01T17:52:30.056Z,0
2022-10-01T17:56:56.218Z,0
2022-10-01T17:59:16.002Z,0
2022-10-01T18:04:25.747Z,0
2022-10-01T18:21:51.379Z,0
